Time;durP1;ratioP1;P1;durP2;ratioP2;P2;SDS_P1;SDS_P2;PMS_P1;PMS_P2;Temp;Humidity;BMP_temperature;BMP_pressure;BME280_temperature;BME280_humidity;BME280_pressure;Samples;Min_cycle;Max_cycle;Signal;HPM_P1;HPM_P2
2023/02/28 00:01:16;;;;;;;;;;;;;;;0.22;58.72;92860.63;2061688;69;20139;-75
2023/02/28 00:03:42;;;;;;;;;;;;;;;-0.02;59.74;92856.16;2061596;69;20484;-73
2023/02/28 00:06:09;;;;;;;;;;;;;;;-0.51;60.77;92858.75;2061786;69;20049;-74
2023/02/28 00:08:34;;;;;;;;;;;;;;;-0.10;60.01;92855.31;2062002;69;20138;-74
2023/02/28 00:11:08;;;;;;;;;;;;;;;-0.43;61.06;92853.31;2061651;69;20057;-70
2023/02/28 00:13:37;;;;;;;;;;;;;;;-0.30;60.20;92859.56;2061590;69;20084;-74
2023/02/28 00:16:04;;;;;;;;;;;;;;;-0.13;60.79;92859.19;2059863;69;20439;-73
2023/02/28 00:18:30;;;;;;;;;;;;;;;-0.05;59.80;92860.00;2058430;69;20066;-75
2023/02/28 00:20:55;;;;;;;;;;;;;;;-0.10;60.22;92860.88;2058424;69;20069;-75
2023/02/28 00:23:21;;;;;;;;;;;;;;;-0.48;61.33;92862.47;2058029;69;20089;-75
2023/02/28 00:25:46;;;;;;;;;;;;;;;-0.74;62.12;92858.47;2058486;69;20075;-70
2023/02/28 00:28:12;;;;;;;;;;;;;;;-0.38;61.26;92855.22;2058534;69;20081;-76
2023/02/28 00:30:38;;;;;;;;;;;;;;;-0.18;60.42;92857.28;2058029;69;20143;-76
2023/02/28 00:33:04;;;;;;;;;;;;;;;-0.15;60.18;92858.97;2058085;69;20038;-75
2023/02/28 00:35:29;;;;;;;;;;;;;;;-0.16;60.22;92857.50;2058573;69;20230;-71
2023/02/28 00:37:55;;;;;;;;;;;;;;;-0.56;61.52;92854.81;2058489;69;20054;-71
2023/02/28 00:40:20;;;;;;;;;;;;;;;-0.88;62.93;92860.50;2058503;69;20050;-74
2023/02/28 00:42:46;;;;;;;;;;;;;;;-0.54;61.92;92855.06;2058501;69;20153;-75
2023/02/28 00:45:12;;;;;;;;;;;;;;;-0.71;62.65;92864.97;2057905;69;20057;-76
2023/02/28 00:47:37;;;;;;;;;;;;;;;-0.51;62.45;92867.03;2057792;69;20524;-76
2023/02/28 00:50:04;;;;;;;;;;;;;;;-0.85;63.53;92873.28;2058584;69;20046;-76
2023/02/28 00:52:30;;;;;;;;;;;;;;;-0.83;63.60;92867.94;2058547;69;20073;-75
2023/02/28 00:54:55;;;;;;;;;;;;;;;-0.76;63.57;92869.34;2058186;69;20069;-76
2023/02/28 00:57:21;;;;;;;;;;;;;;;-0.78;63.26;92869.09;2057653;69;20109;-76
2023/02/28 00:59:47;;;;;;;;;;;;;;;-0.82;63.29;92857.66;2057723;69;20058;-75
2023/02/28 01:02:13;;;;;;;;;;;;;;;-0.90;63.87;92867.84;2057389;69;20583;-74
2023/02/28 01:04:38;;;;;;;;;;;;;;;-0.67;62.41;92860.59;2058042;69;20054;-75
2023/02/28 01:07:04;;;;;;;;;;;;;;;-0.92;63.74;92856.56;2057867;69;20050;-76
2023/02/28 01:09:29;;;;;;;;;;;;;;;-1.06;63.90;92859.34;2055006;69;20097;-76
2023/02/28 01:11:55;;;;;;;;;;;;;;;-0.80;63.12;92866.16;2057791;69;20046;-75
2023/02/28 01:14:20;;;;;;;;;;;;;;;-0.68;62.49;92853.59;2058289;69;20182;-76
2023/02/28 01:16:46;;;;;;;;;;;;;;;-0.96;63.23;92864.44;2058329;69;20394;-76
2023/02/28 01:19:11;;;;;;;;;;;;;;;-0.61;62.35;92861.22;2059181;69;20081;-75
2023/02/28 01:21:38;;;;;;;;;;;;;;;-1.14;64.06;92868.81;2061309;69;20117;-76
2023/02/28 01:24:05;;;;;;;;;;;;;;;-0.71;62.76;92867.72;2058236;69;20050;-76
2023/02/28 01:26:31;;;;;;;;;;;;;;;-0.79;63.07;92873.91;2060519;69;20058;-75
2023/02/28 01:28:57;;;;;;;;;;;;;;;-1.09;64.65;92865.22;2061092;69;20427;-74
2023/02/28 01:31:24;;;;;;;;;;;;;;;-1.00;64.06;92870.31;2061727;69;20174;-74
2023/02/28 01:33:50;;;;;;;;;;;;;;;-0.91;63.65;92871.91;2061596;69;20568;-74
2023/02/28 01:36:25;;;;;;;;;;;;;;;-0.99;63.62;92877.31;2061770;69;20100;-74
2023/02/28 01:38:51;;;;;;;;;;;;;;;-1.02;63.59;92883.91;2058771;69;20061;-74
2023/02/28 01:41:24;;;;;;;;;;;;;;;-0.80;62.75;92874.44;2057846;69;20074;-75
2023/02/28 01:43:49;;;;;;;;;;;;;;;-0.87;62.90;92877.84;2057715;69;20065;-75
2023/02/28 01:46:15;;;;;;;;;;;;;;;-0.75;62.29;92873.56;2058342;69;20115;-76
2023/02/28 01:48:48;;;;;;;;;;;;;;;-0.97;62.88;92876.78;2058290;69;20197;-75
2023/02/28 01:51:20;;;;;;;;;;;;;;;-0.95;63.20;92869.44;2057738;69;20498;-75
2023/02/28 01:53:50;;;;;;;;;;;;;;;-0.84;62.54;92866.47;2058744;69;20078;-75
2023/02/28 01:56:22;;;;;;;;;;;;;;;-0.93;63.43;92868.91;2061359;69;20060;-75
2023/02/28 01:58:50;;;;;;;;;;;;;;;-1.27;64.47;92866.06;2061171;69;20081;-75
2023/02/28 02:01:21;;;;;;;;;;;;;;;-1.05;63.38;92865.63;2061051;69;20145;-76
2023/02/28 02:04:04;;;;;;;;;;;;;;;-1.32;64.85;92862.13;2061074;69;20489;-76
2023/02/28 02:06:35;;;;;;;;;;;;;;;-0.98;63.36;92872.53;2060695;69;20069;-76
2023/02/28 02:09:01;;;;;;;;;;;;;;;-0.92;62.67;92871.13;2061226;69;20066;-76
2023/02/28 02:11:29;;;;;;;;;;;;;;;-0.79;62.39;92865.59;2061381;69;20139;-74
2023/02/28 02:14:14;;;;;;;;;;;;;;;-0.91;62.23;92863.63;2060582;69;20053;-76
2023/02/28 02:16:46;;;;;;;;;;;;;;;-1.23;62.75;92860.97;2055997;69;20648;-76
2023/02/28 02:19:25;;;;;;;;;;;;;;;-1.27;63.16;92860.53;2054154;70;20066;-75
2023/02/28 02:22:10;;;;;;;;;;;;;;;-1.07;62.77;92846.81;2054304;70;20054;-75
2023/02/28 02:24:36;;;;;;;;;;;;;;;-1.06;62.97;92850.31;2054153;69;20533;-72
2023/02/28 02:27:01;;;;;;;;;;;;;;;-1.20;63.21;92846.81;2057425;69;20054;-75
2023/02/28 02:29:41;;;;;;;;;;;;;;;-1.32;63.82;92851.06;2058635;69;20049;-74
2023/02/28 02:32:19;;;;;;;;;;;;;;;-1.12;63.18;92847.66;2058253;69;20141;-74
2023/02/28 02:34:53;;;;;;;;;;;;;;;-1.24;63.95;92851.16;2053639;70;20058;-75
2023/02/28 02:37:34;;;;;;;;;;;;;;;-1.08;63.31;92855.63;2054438;70;20121;-75
2023/02/28 02:40:09;;;;;;;;;;;;;;;-0.91;62.90;92850.53;2054504;70;20144;-74
2023/02/28 02:42:50;;;;;;;;;;;;;;;-0.80;62.59;92847.53;2051502;70;20061;-75
2023/02/28 02:45:20;;;;;;;;;;;;;;;-1.21;63.26;92853.63;2054865;69;20061;-74
2023/02/28 02:47:46;;;;;;;;;;;;;;;-1.30;64.13;92846.50;2054681;69;20042;-76
2023/02/28 02:50:19;;;;;;;;;;;;;;;-1.13;63.52;92848.94;2054826;69;20066;-76
2023/02/28 02:52:48;;;;;;;;;;;;;;;-0.95;62.33;92843.84;2054630;69;20063;-77
2023/02/28 02:55:14;;;;;;;;;;;;;;;-1.15;63.29;92848.72;2054120;70;20062;-77
2023/02/28 02:57:47;;;;;;;;;;;;;;;-1.11;63.50;92845.63;2054680;69;20070;-75
2023/02/28 03:00:15;;;;;;;;;;;;;;;-0.99;62.18;92851.72;2054279;70;20054;-78
2023/02/28 03:02:41;;;;;;;;;;;;;;;-1.02;62.20;92853.50;2054240;70;20057;-77
2023/02/28 03:05:27;;;;;;;;;;;;;;;-1.14;63.27;92847.47;2054468;69;20526;-74
2023/02/28 03:07:53;;;;;;;;;;;;;;;-1.14;62.95;92849.47;2054377;70;20153;-76
2023/02/28 03:10:30;;;;;;;;;;;;;;;-1.16;62.44;92850.00;2054539;70;20542;-77
2023/02/28 03:13:16;;;;;;;;;;;;;;;-1.22;63.94;92857.66;2054125;70;20047;-77
2023/02/28 03:15:48;;;;;;;;;;;;;;;-1.24;63.69;92860.19;2050989;69;20546;-74
2023/02/28 03:18:33;;;;;;;;;;;;;;;-1.45;64.02;92862.09;2054593;70;20086;-72
2023/02/28 03:21:19;;;;;;;;;;;;;;;-1.50;64.80;92863.69;2052795;70;20063;-75
2023/02/28 03:23:48;;;;;;;;;;;;;;;-1.56;64.47;92863.78;2055377;70;20494;-76
2023/02/28 03:26:20;;;;;;;;;;;;;;;-1.45;64.33;92868.38;2055365;69;20081;-75
2023/02/28 03:29:16;;;;;;;;;;;;;;;-1.49;63.70;92867.19;2055314;69;20055;-79
2023/02/28 03:31:50;;;;;;;;;;;;;;;-1.72;64.55;92866.81;2055102;69;20522;-74
2023/02/28 03:34:36;;;;;;;;;;;;;;;-1.90;65.81;92868.38;2055043;69;20548;-79
2023/02/28 03:37:07;;;;;;;;;;;;;;;-1.58;63.43;92869.09;2048481;70;20081;-75
2023/02/28 03:39:39;;;;;;;;;;;;;;;-1.62;63.25;92865.88;2048612;70;20051;-75
2023/02/28 03:42:09;;;;;;;;;;;;;;;-1.55;63.33;92873.56;2048460;70;20047;-74
2023/02/28 03:44:43;;;;;;;;;;;;;;;-1.61;63.76;92872.16;2048121;70;20161;-75
2023/02/28 03:47:12;;;;;;;;;;;;;;;-1.71;63.76;92877.34;2048425;70;20046;-73
2023/02/28 03:49:43;;;;;;;;;;;;;;;-1.73;64.46;92873.63;2048496;70;20051;-73
2023/02/28 03:52:08;;;;;;;;;;;;;;;-1.65;64.01;92868.94;2048482;70;20053;-76
2023/02/28 03:54:38;;;;;;;;;;;;;;;-1.67;63.88;92871.50;2048517;70;20092;-75
2023/02/28 03:57:08;;;;;;;;;;;;;;;-1.63;63.36;92869.91;2048560;70;20047;-74
2023/02/28 03:59:54;;;;;;;;;;;;;;;-1.64;63.73;92870.47;2048543;70;20051;-76
2023/02/28 04:02:19;;;;;;;;;;;;;;;-1.77;63.41;92870.44;2048492;70;20063;-76
2023/02/28 04:04:49;;;;;;;;;;;;;;;-1.94;63.66;92874.19;2048420;70;20054;-75
2023/02/28 04:07:15;;;;;;;;;;;;;;;-1.77;63.78;92878.72;2048268;70;20055;-75
2023/02/28 04:09:40;;;;;;;;;;;;;;;-1.82;64.61;92880.28;2048302;70;20523;-76
2023/02/28 04:12:07;;;;;;;;;;;;;;;-1.77;64.50;92875.94;2048667;70;20047;-75
2023/02/28 04:14:32;;;;;;;;;;;;;;;-1.71;64.84;92873.81;2048634;70;20487;-76
2023/02/28 04:16:58;;;;;;;;;;;;;;;-1.81;64.24;92884.53;2047861;70;20059;-77
2023/02/28 04:19:23;;;;;;;;;;;;;;;-1.88;64.21;92885.91;2048390;70;20043;-77
2023/02/28 04:21:50;;;;;;;;;;;;;;;-1.86;64.17;92883.34;2048542;70;20138;-76
2023/02/28 04:24:20;;;;;;;;;;;;;;;-2.00;63.92;92886.59;2048652;70;20092;-76
2023/02/28 04:26:47;;;;;;;;;;;;;;;-2.00;64.37;92886.59;2048118;70;20411;-77
2023/02/28 04:29:13;;;;;;;;;;;;;;;-2.04;65.01;92884.13;2048548;70;20176;-76
2023/02/28 04:31:39;;;;;;;;;;;;;;;-1.95;64.63;92883.75;2048489;70;20474;-75
2023/02/28 04:34:05;;;;;;;;;;;;;;;-2.00;64.22;92879.06;2047968;70;20067;-77
2023/02/28 04:36:31;;;;;;;;;;;;;;;-1.96;64.81;92887.78;2054643;70;20086;-76
2023/02/28 04:38:56;;;;;;;;;;;;;;;-1.98;64.87;92886.78;2054772;69;20058;-76
2023/02/28 04:41:22;;;;;;;;;;;;;;;-2.00;63.33;92886.59;2054743;70;20058;-77
2023/02/28 04:43:48;;;;;;;;;;;;;;;-1.93;63.71;92874.94;2055037;69;20068;-76
2023/02/28 04:46:13;;;;;;;;;;;;;;;-1.82;63.87;92874.75;2055295;69;20066;-75
2023/02/28 04:48:39;;;;;;;;;;;;;;;-1.95;63.86;92869.94;2055302;70;20490;-76
2023/02/28 04:51:08;;;;;;;;;;;;;;;-2.03;64.55;92876.59;2055839;69;20121;-71
2023/02/28 04:53:34;;;;;;;;;;;;;;;-2.06;63.99;92875.66;2055623;69;20531;-74
2023/02/28 04:56:00;;;;;;;;;;;;;;;-2.08;64.92;92876.16;2055423;69;20272;-77
2023/02/28 04:58:26;;;;;;;;;;;;;;;-2.01;64.76;92874.81;2055281;69;20058;-76
2023/02/28 05:00:52;;;;;;;;;;;;;;;-2.04;64.11;92875.84;2054953;70;20054;-71
2023/02/28 05:03:17;;;;;;;;;;;;;;;-2.07;64.12;92874.88;2054378;69;20054;-76
2023/02/28 05:05:42;;;;;;;;;;;;;;;-2.06;64.49;92870.13;2055099;70;20141;-75
2023/02/28 05:08:09;;;;;;;;;;;;;;;-2.14;64.78;92880.28;2055207;70;20050;-77
2023/02/28 05:10:35;;;;;;;;;;;;;;;-2.27;65.16;92875.44;2055157;69;20054;-74
2023/02/28 05:13:00;;;;;;;;;;;;;;;-2.72;67.67;92889.09;2055061;69;20058;-72
2023/02/28 05:15:26;;;;;;;;;;;;;;;-2.27;65.59;92894.75;2055249;69;20050;-77
2023/02/28 05:17:51;;;;;;;;;;;;;;;-2.31;64.46;92892.28;2055218;70;20478;-75
2023/02/28 05:20:17;;;;;;;;;;;;;;;-2.28;65.25;92889.75;2055212;69;20094;-74
2023/02/28 05:22:43;;;;;;;;;;;;;;;-2.20;64.97;92899.69;2055188;69;20042;-75
2023/02/28 05:25:12;;;;;;;;;;;;;;;-2.30;64.83;92904.81;2054904;69;20055;-75
2023/02/28 05:27:37;;;;;;;;;;;;;;;-2.34;64.71;92895.34;2054775;69;20061;-75
2023/02/28 05:30:04;;;;;;;;;;;;;;;-2.34;64.84;92903.59;2054857;69;20050;-76
2023/02/28 05:32:29;;;;;;;;;;;;;;;-2.41;65.07;92899.44;2054670;69;20437;-74
2023/02/28 05:34:55;;;;;;;;;;;;;;;-2.52;65.36;92912.63;2054929;69;20050;-75
2023/02/28 05:37:20;;;;;;;;;;;;;;;-2.34;64.79;92903.59;2055023;69;20054;-75
2023/02/28 05:39:46;;;;;;;;;;;;;;;-2.45;65.40;92895.50;2054861;69;20049;-77
2023/02/28 05:42:11;;;;;;;;;;;;;;;-2.42;66.03;92897.22;2054992;70;20120;-77
2023/02/28 05:44:37;;;;;;;;;;;;;;;-2.62;65.38;92899.22;2055175;70;20162;-75
2023/02/28 05:47:02;;;;;;;;;;;;;;;-2.58;64.16;92899.66;2054680;70;20054;-74
2023/02/28 05:49:27;;;;;;;;;;;;;;;-2.59;65.81;92911.97;2054999;70;20066;-74
2023/02/28 05:51:53;;;;;;;;;;;;;;;-2.53;66.10;92913.91;2054914;69;20061;-75
2023/02/28 05:54:18;;;;;;;;;;;;;;;-2.57;65.66;92914.19;2054985;70;20058;-76
2023/02/28 05:56:45;;;;;;;;;;;;;;;-2.73;65.76;92917.91;2055102;70;20050;-76
2023/02/28 05:59:12;;;;;;;;;;;;;;;-2.68;65.48;92917.84;2054962;69;20066;-77
2023/02/28 06:01:42;;;;;;;;;;;;;;;-2.53;66.05;92924.94;2055203;69;20378;-76
2023/02/28 06:04:09;;;;;;;;;;;;;;;-2.64;65.11;92921.06;2054958;69;20058;-76
2023/02/28 06:06:35;;;;;;;;;;;;;;;-2.75;65.08;92931.44;2055131;69;20046;-76
2023/02/28 06:09:01;;;;;;;;;;;;;;;-2.63;65.43;92927.31;2055080;69;20058;-76
2023/02/28 06:11:27;;;;;;;;;;;;;;;-2.69;64.95;92930.13;2055158;69;20443;-77
2023/02/28 06:13:53;;;;;;;;;;;;;;;-2.68;65.96;92939.16;2055154;69;20069;-74
2023/02/28 06:16:18;;;;;;;;;;;;;;;-2.57;65.71;92937.00;2055076;69;20050;-76
2023/02/28 06:18:44;;;;;;;;;;;;;;;-2.52;65.69;92946.47;2055359;70;20050;-75
2023/02/28 06:21:09;;;;;;;;;;;;;;;-2.52;66.38;92946.47;2054584;70;20161;-75
2023/02/28 06:23:35;;;;;;;;;;;;;;;-2.61;66.63;92944.81;2055449;70;20061;-76
2023/02/28 06:26:00;;;;;;;;;;;;;;;-2.55;65.69;92958.53;2055150;69;20054;-76
2023/02/28 06:28:26;;;;;;;;;;;;;;;-2.53;65.31;92949.75;2055147;70;20062;-76
2023/02/28 06:30:52;;;;;;;;;;;;;;;-2.54;65.47;92954.50;2055007;70;20050;-76
2023/02/28 06:33:17;;;;;;;;;;;;;;;-2.55;65.26;92961.28;2056636;69;20057;-76
2023/02/28 06:35:43;;;;;;;;;;;;;;;-2.52;66.07;92952.00;2058477;69;20062;-76
2023/02/28 06:38:10;;;;;;;;;;;;;;;-2.49;66.18;92955.69;2058416;69;20042;-75
2023/02/28 06:40:35;;;;;;;;;;;;;;;-2.41;65.46;92960.13;2058356;69;20096;-76
2023/02/28 06:43:01;;;;;;;;;;;;;;;-2.35;66.07;92974.56;2058162;69;20050;-77
2023/02/28 06:45:27;;;;;;;;;;;;;;;-2.40;65.40;92969.88;2058255;69;20054;-76
2023/02/28 06:47:53;;;;;;;;;;;;;;;-2.43;66.50;92967.41;2058351;69;20074;-75
2023/02/28 06:50:20;;;;;;;;;;;;;;;-2.44;66.85;92966.66;2058266;69;20042;-74
2023/02/28 06:52:47;;;;;;;;;;;;;;;-2.36;66.78;92970.31;2058651;69;20057;-74
2023/02/28 06:55:13;;;;;;;;;;;;;;;-2.18;66.94;92960.56;2058185;69;20066;-76
2023/02/28 06:57:38;;;;;;;;;;;;;;;-2.20;66.49;92963.13;2058734;69;20115;-76
2023/02/28 07:00:08;;;;;;;;;;;;;;;-2.19;66.31;92952.81;2058830;69;20437;-75
2023/02/28 07:02:34;;;;;;;;;;;;;;;-2.15;66.55;92954.00;2057890;69;20226;-77
2023/02/28 07:05:00;;;;;;;;;;;;;;;-2.17;66.03;92951.00;2058809;69;20522;-77
2023/02/28 07:07:25;;;;;;;;;;;;;;;-2.14;66.19;92968.56;2058778;69;20049;-79
2023/02/28 07:09:50;;;;;;;;;;;;;;;-1.88;65.42;92957.66;2058640;69;20053;-76
2023/02/28 07:12:16;;;;;;;;;;;;;;;-1.91;65.91;92971.75;2059005;69;20470;-78
2023/02/28 07:14:41;;;;;;;;;;;;;;;-1.87;66.02;92966.66;2058668;69;20172;-78
2023/02/28 07:17:07;;;;;;;;;;;;;;;-1.78;66.07;92973.81;2059308;69;20290;-79
2023/02/28 07:19:33;;;;;;;;;;;;;;;-1.76;65.85;92971.28;2058694;69;20046;-79
2023/02/28 07:21:59;;;;;;;;;;;;;;;-1.62;65.31;92970.78;2058788;69;20099;-76
2023/02/28 07:24:28;;;;;;;;;;;;;;;-1.56;65.60;92973.47;2058773;69;20076;-78
2023/02/28 07:26:53;;;;;;;;;;;;;;;-1.93;66.50;92968.75;2058714;69;20061;-77
2023/02/28 07:29:18;;;;;;;;;;;;;;;-2.08;66.98;92967.19;2058726;69;20058;-77
2023/02/28 07:31:44;;;;;;;;;;;;;;;-2.20;67.80;92974.16;2058927;69;20046;-76
2023/02/28 07:34:09;;;;;;;;;;;;;;;-2.05;67.92;92968.91;2058804;69;20076;-77
2023/02/28 07:36:35;;;;;;;;;;;;;;;-1.87;67.03;92967.41;2058759;69;20042;-77
2023/02/28 07:39:00;;;;;;;;;;;;;;;-1.81;66.77;92961.81;2058636;69;20141;-76
2023/02/28 07:41:27;;;;;;;;;;;;;;;-1.96;67.70;92969.81;2059116;69;20426;-75
2023/02/28 07:43:53;;;;;;;;;;;;;;;-1.69;66.92;92970.69;2058638;69;20046;-76
2023/02/28 07:46:21;;;;;;;;;;;;;;;-1.54;66.59;92974.44;2058625;69;20060;-76
2023/02/28 07:48:46;;;;;;;;;;;;;;;-1.30;65.30;92975.56;2059084;69;20057;-75
2023/02/28 07:51:12;;;;;;;;;;;;;;;-1.35;65.75;92968.88;2059190;69;20047;-76
2023/02/28 07:53:37;;;;;;;;;;;;;;;-1.38;65.48;92958.13;2058635;69;20054;-76
2023/02/28 07:56:03;;;;;;;;;;;;;;;-1.43;66.03;92975.53;2058735;69;20084;-74
2023/02/28 07:58:29;;;;;;;;;;;;;;;-1.28;65.47;92970.28;2058683;69;20042;-75
2023/02/28 08:00:55;;;;;;;;;;;;;;;-1.26;65.35;92972.50;2058624;69;20082;-75
2023/02/28 08:03:21;;;;;;;;;;;;;;;-1.12;65.49;92977.53;2058491;69;20501;-76
2023/02/28 08:05:47;;;;;;;;;;;;;;;-1.09;65.66;92973.72;2058649;69;20046;-76
2023/02/28 08:08:13;;;;;;;;;;;;;;;-0.98;64.49;92975.53;2058801;69;20136;-76
2023/02/28 08:10:39;;;;;;;;;;;;;;;-0.83;64.31;92984.03;2058619;69;20061;-77
2023/02/28 08:13:04;;;;;;;;;;;;;;;-0.75;64.00;92986.94;2058790;69;20057;-76
2023/02/28 08:15:30;;;;;;;;;;;;;;;-0.88;64.41;92993.19;2058773;69;20062;-77
2023/02/28 08:17:56;;;;;;;;;;;;;;;-0.67;63.74;92987.78;2058532;69;20141;-71
2023/02/28 08:20:22;;;;;;;;;;;;;;;-0.69;64.05;92986.81;2058709;69;20092;-72
2023/02/28 08:22:47;;;;;;;;;;;;;;;-0.54;63.29;92985.03;2058823;69;20058;-76
2023/02/28 08:25:13;;;;;;;;;;;;;;;-0.70;63.99;92980.53;2058773;69;20102;-77
2023/02/28 08:27:38;;;;;;;;;;;;;;;-0.49;64.51;92974.41;2058703;69;20066;-76
2023/02/28 08:30:04;;;;;;;;;;;;;;;-0.15;64.19;92958.59;2058779;69;20113;-76
2023/02/28 08:32:29;;;;;;;;;;;;;;;0.17;63.14;92982.59;2058501;69;20046;-76
2023/02/28 08:34:55;;;;;;;;;;;;;;;0.51;62.50;92979.81;2058616;69;20414;-76
2023/02/28 08:37:20;;;;;;;;;;;;;;;0.55;61.73;92974.69;2058625;69;20071;-77
2023/02/28 08:39:46;;;;;;;;;;;;;;;0.93;61.79;92975.03;2058761;69;20447;-75
2023/02/28 08:42:11;;;;;;;;;;;;;;;1.11;61.13;92976.09;2058817;69;20556;-77
2023/02/28 08:44:36;;;;;;;;;;;;;;;1.65;61.60;92976.44;2058242;69;20062;-77
2023/02/28 08:47:02;;;;;;;;;;;;;;;2.13;59.61;92979.66;2058550;69;20054;-76
2023/02/28 08:49:28;;;;;;;;;;;;;;;2.42;57.33;92983.09;2058733;69;20494;-74
2023/02/28 08:51:55;;;;;;;;;;;;;;;2.76;56.52;92980.03;2058609;69;20058;-75
2023/02/28 08:54:20;;;;;;;;;;;;;;;3.37;55.81;92976.53;2058564;69;20080;-75
2023/02/28 08:56:48;;;;;;;;;;;;;;;3.69;54.00;92973.16;2058550;69;20058;-76
2023/02/28 08:59:14;;;;;;;;;;;;;;;3.86;53.08;92967.75;2058591;69;20072;-77
2023/02/28 09:01:41;;;;;;;;;;;;;;;3.90;51.45;92967.38;2057986;69;20077;-77
2023/02/28 09:04:08;;;;;;;;;;;;;;;3.64;50.74;92963.69;2058380;69;20133;-76
2023/02/28 09:06:34;;;;;;;;;;;;;;;4.28;50.36;92964.44;2058622;69;20585;-75
2023/02/28 09:09:00;;;;;;;;;;;;;;;4.34;50.25;92974.06;2058607;69;20153;-75
2023/02/28 09:11:26;;;;;;;;;;;;;;;4.81;49.50;92966.97;2058836;69;20057;-75
2023/02/28 09:13:51;;;;;;;;;;;;;;;5.27;49.37;92963.13;2058621;69;20086;-77
2023/02/28 09:16:17;;;;;;;;;;;;;;;5.60;47.59;92974.94;2058651;69;20168;-77
2023/02/28 09:18:43;;;;;;;;;;;;;;;4.91;47.44;92975.47;2058428;69;20504;-80
2023/02/28 09:21:13;;;;;;;;;;;;;;;5.27;46.73;92975.03;2058138;69;20176;-74
2023/02/28 09:23:39;;;;;;;;;;;;;;;5.41;44.81;92964.31;2058761;69;20042;-77
2023/02/28 09:26:06;;;;;;;;;;;;;;;5.76;44.12;92964.34;2057863;69;20129;-75
2023/02/28 09:28:31;;;;;;;;;;;;;;;6.34;43.02;92970.47;2058379;69;20470;-75
2023/02/28 09:30:58;;;;;;;;;;;;;;;5.63;42.63;92965.41;2058300;69;20050;-74
2023/02/28 09:33:24;;;;;;;;;;;;;;;6.04;42.65;92977.88;2058222;69;20073;-77
2023/02/28 09:35:50;;;;;;;;;;;;;;;6.65;43.28;92993.22;2058066;69;20410;-76
2023/02/28 09:38:16;;;;;;;;;;;;;;;5.86;42.77;92979.16;2057674;69;20168;-77
2023/02/28 09:40:48;;;;;;;;;;;;;;;6.82;42.22;92981.25;2057949;69;20482;-77
2023/02/28 09:43:15;;;;;;;;;;;;;;;5.94;42.53;92974.25;2057511;69;20066;-79
2023/02/28 09:45:42;;;;;;;;;;;;;;;6.16;42.15;92972.53;2057854;69;20176;-78
2023/02/28 09:48:15;;;;;;;;;;;;;;;7.15;40.46;92967.75;2058037;69;20053;-77
2023/02/28 09:50:45;;;;;;;;;;;;;;;8.03;40.29;92963.88;2058385;69;20196;-76
2023/02/28 09:53:35;;;;;;;;;;;;;;;7.26;39.01;92963.66;2058504;69;20098;-77
2023/02/28 09:56:26;;;;;;;;;;;;;;;7.38;40.56;92968.13;2058620;69;20132;-78
2023/02/28 09:58:54;;;;;;;;;;;;;;;8.44;39.46;92966.13;2058596;69;20069;-76
2023/02/28 10:01:38;;;;;;;;;;;;;;;8.87;38.67;92958.69;2058486;69;20050;-78
2023/02/28 10:04:16;;;;;;;;;;;;;;;9.25;39.32;92966.28;2058378;69;20484;-74
2023/02/28 10:06:46;;;;;;;;;;;;;;;9.68;37.40;92969.22;2058449;69;20088;-77
2023/02/28 10:09:17;;;;;;;;;;;;;;;8.89;38.40;92965.19;2058898;69;20146;-80
2023/02/28 10:11:43;;;;;;;;;;;;;;;10.36;36.91;92960.41;2058450;69;20410;-77
2023/02/28 10:14:12;;;;;;;;;;;;;;;9.93;35.68;92957.53;2058372;69;20498;-76
2023/02/28 10:16:41;;;;;;;;;;;;;;;10.07;37.04;92957.75;2058439;69;20120;-76
2023/02/28 10:19:14;;;;;;;;;;;;;;;10.01;36.07;92960.91;2058195;69;20058;-77
2023/02/28 10:21:43;;;;;;;;;;;;;;;10.56;35.16;92950.44;2058395;69;20133;-75
2023/02/28 10:24:27;;;;;;;;;;;;;;;10.95;34.27;92958.56;2058286;69;20085;-79
2023/02/28 10:26:56;;;;;;;;;;;;;;;11.66;33.81;92953.75;2058632;69;20082;-78
2023/02/28 10:29:22;;;;;;;;;;;;;;;10.84;33.35;92954.34;2061775;69;20482;-77
2023/02/28 10:31:48;;;;;;;;;;;;;;;10.19;33.37;92950.13;2062085;69;20054;-79
2023/02/28 10:34:13;;;;;;;;;;;;;;;11.05;34.08;92952.84;2062027;69;20091;-77
2023/02/28 10:36:39;;;;;;;;;;;;;;;12.17;32.11;92951.91;2062184;69;20046;-79
2023/02/28 10:39:23;;;;;;;;;;;;;;;11.75;30.91;92957.81;2062225;69;20447;-79
2023/02/28 10:41:49;;;;;;;;;;;;;;;13.15;31.51;92951.81;2062258;69;20406;-77
2023/02/28 10:44:19;;;;;;;;;;;;;;;13.36;29.86;92944.47;2062089;69;20077;-76
2023/02/28 10:46:45;;;;;;;;;;;;;;;14.40;29.93;92941.41;2062142;69;20050;-75
2023/02/28 10:49:17;;;;;;;;;;;;;;;15.50;27.47;92947.47;2061375;69;20386;-76
2023/02/28 10:51:43;;;;;;;;;;;;;;;15.68;27.24;92938.38;2062178;69;20096;-78
2023/02/28 10:54:37;;;;;;;;;;;;;;;13.67;27.82;92936.25;2062090;69;20061;-78
2023/02/28 10:57:08;;;;;;;;;;;;;;;14.99;27.43;92928.06;2060379;69;20077;-76
2023/02/28 10:59:34;;;;;;;;;;;;;;;16.03;27.12;92934.94;2061978;69;20058;-79
2023/02/28 11:01:59;;;;;;;;;;;;;;;15.96;26.35;92941.75;2061982;69;20478;-76
2023/02/28 11:04:39;;;;;;;;;;;;;;;15.30;27.05;92940.84;2062095;69;20496;-77
2023/02/28 11:07:05;;;;;;;;;;;;;;;16.40;26.07;92928.03;2062024;69;20054;-76
2023/02/28 11:09:33;;;;;;;;;;;;;;;18.34;24.80;92929.97;2062023;69;20080;-77
2023/02/28 11:11:59;;;;;;;;;;;;;;;20.00;22.31;92928.28;2062041;69;20137;-75
2023/02/28 11:14:29;;;;;;;;;;;;;;;21.32;21.98;92928.28;2062047;69;20436;-76
2023/02/28 11:16:58;;;;;;;;;;;;;;;21.07;21.83;92929.78;2061881;69;20073;-77
2023/02/28 11:19:27;;;;;;;;;;;;;;;19.71;22.83;92926.69;2062233;69;20145;-75
2023/02/28 11:21:56;;;;;;;;;;;;;;;21.70;21.72;92928.47;2062544;69;20453;-76
2023/02/28 11:24:24;;;;;;;;;;;;;;;23.15;20.48;92933.63;2062024;69;20453;-75
2023/02/28 11:26:49;;;;;;;;;;;;;;;24.59;19.59;92926.44;2062006;69;20104;-77
2023/02/28 11:29:18;;;;;;;;;;;;;;;24.94;19.46;92927.56;2062035;69;20053;-74
2023/02/28 11:32:00;;;;;;;;;;;;;;;24.38;19.04;92919.00;2062032;69;20112;-74
2023/02/28 11:34:27;;;;;;;;;;;;;;;25.83;17.93;92926.97;2062035;69;20510;-75
2023/02/28 11:36:54;;;;;;;;;;;;;;;25.25;17.76;92922.16;2061901;69;20136;-76
2023/02/28 11:39:20;;;;;;;;;;;;;;;24.12;18.58;92910.72;2061847;69;20050;-73
2023/02/28 11:42:04;;;;;;;;;;;;;;;25.38;17.40;92915.06;2061883;69;20062;-75
2023/02/28 11:44:51;;;;;;;;;;;;;;;23.59;18.69;92910.63;2061984;69;20042;-75
2023/02/28 11:47:25;;;;;;;;;;;;;;;26.73;17.81;92915.97;2061964;69;20547;-75
2023/02/28 11:50:01;;;;;;;;;;;;;;;28.01;17.27;92904.59;2062008;69;20549;-73
2023/02/28 11:52:45;;;;;;;;;;;;;;;28.22;15.59;92905.28;2061974;69;20525;-74
2023/02/28 11:55:17;;;;;;;;;;;;;;;27.62;17.02;92900.97;2062038;69;20081;-74
2023/02/28 11:57:55;;;;;;;;;;;;;;;27.00;16.38;92903.06;2061873;69;20137;-75
2023/02/28 12:00:35;;;;;;;;;;;;;;;26.73;14.51;92896.47;2061941;69;20238;-74
2023/02/28 12:03:22;;;;;;;;;;;;;;;26.39;16.78;92897.03;2061746;69;20077;-75
2023/02/28 12:06:08;;;;;;;;;;;;;;;23.56;16.84;92884.03;2061928;69;20081;-74
2023/02/28 12:08:34;;;;;;;;;;;;;;;26.22;16.77;92892.63;2061759;69;20528;-73
2023/02/28 12:10:59;;;;;;;;;;;;;;;26.34;16.17;92887.63;2061990;69;20045;-74
2023/02/28 12:13:34;;;;;;;;;;;;;;;28.62;15.25;92883.47;2061995;69;20169;-75
2023/02/28 12:16:18;;;;;;;;;;;;;;;26.24;16.03;92886.84;2061866;69;20050;-76
2023/02/28 12:18:49;;;;;;;;;;;;;;;22.97;18.07;92870.84;2061826;69;20052;-75
2023/02/28 12:21:20;;;;;;;;;;;;;;;24.69;17.23;92871.16;2061903;69;20061;-76
2023/02/28 12:24:01;;;;;;;;;;;;;;;29.87;14.74;92872.59;2062020;69;20053;-76
2023/02/28 12:26:43;;;;;;;;;;;;;;;24.48;17.95;92861.56;2062040;69;20054;-75
2023/02/28 12:29:29;;;;;;;;;;;;;;;27.63;15.82;92864.84;2061882;69;20054;-75
2023/02/28 12:32:03;;;;;;;;;;;;;;;24.33;16.43;92847.00;2061775;69;20052;-74
2023/02/28 12:34:31;;;;;;;;;;;;;;;24.75;16.64;92846.03;2061857;69;20072;-75
2023/02/28 12:37:00;;;;;;;;;;;;;;;25.37;16.23;92847.34;2061907;69;20046;-74
2023/02/28 12:39:28;;;;;;;;;;;;;;;28.63;15.33;92842.19;2061810;69;20100;-75
2023/02/28 12:42:02;;;;;;;;;;;;;;;25.57;16.92;92841.00;2062433;69;20103;-74
2023/02/28 12:44:34;;;;;;;;;;;;;;;29.87;14.13;92843.56;2061867;69;20050;-75
2023/02/28 12:47:01;;;;;;;;;;;;;;;23.84;17.05;92829.13;2061836;69;20104;-73
2023/02/28 12:49:46;;;;;;;;;;;;;;;27.50;15.08;92837.41;2061743;69;20157;-75
2023/02/28 12:52:13;;;;;;;;;;;;;;;27.80;15.30;92831.59;2061808;69;20101;-73
2023/02/28 12:54:41;;;;;;;;;;;;;;;26.34;15.29;92835.69;2061769;69;20061;-74
2023/02/28 12:57:19;;;;;;;;;;;;;;;30.18;14.03;92837.47;2061815;69;20053;-74